Flight Track Log - Related Links

Times and Time Zones

All times are in EDT time to prevent confusion due to time zone crossing. See the AAL963 flight status page for this flight to view local times or setup timezone preferences in your user account.

Time Position Orientation Groundspeed Altitude Reporting Facility
EDT Latitude Longitude Course Direction KTS MPH feet Rate Location/Type
Sun 10:15:03 PM 32.8730 -97.0510 181° South 194 223 1,500  Level FlightAware ADS-B
Sun 10:15:30 PM 32.8490 -97.0520 182° South 203 234 2,300 1,071 Climbing FlightAware ADS-B
Sun 10:15:59 PM 32.8190 -97.0520 180° South 238 274 2,500 947 Climbing FlightAware ADS-B
Sun 10:16:27 PM 32.7870 -97.0530 182° South 253 291 3,200 1,444 Climbing FlightAware ADS-B
Sun 10:16:53 PM 32.7600 -97.0530 180° South 261 300 3,800 1,500 Climbing FlightAware ADS-B
Sun 10:17:23 PM 32.7250 -97.0540 181° South 270 311 4,600 1,655 Climbing FlightAware ADS-B
Sun 10:17:51 PM 32.6820 -97.0550 181° South 286 329 5,400 1,714 Climbing FlightAware ADS-B
Sun 10:18:19 PM 32.6430 -97.0550 180° South 291 335 6,200 1,821 Climbing FlightAware ADS-B
Sun 10:18:47 PM 32.6080 -97.0550 180° South 294 338 7,100 1,962 Climbing FlightAware ADS-B
Sun 10:19:11 PM 32.5750 -97.0560 181° South 295 339 7,900 1,889 Climbing FlightAware ADS-B
Sun 10:19:41 PM 32.5340 -97.0560 180° South 300 345 8,800 1,869 Climbing FlightAware ADS-B
Sun 10:20:12 PM 32.4870 -97.0570 181° South 307 353 9,800 1,297 Climbing FlightAware ADS-B
Sun 10:20:55 PM 32.4250 -97.0570 180° South 338 389 10,400 889 Climbing FlightAware ADS-B
Sun 10:21:33 PM 32.3610 -97.0580 181° South 371 427 11,000 825 Climbing FlightAware ADS-B
Sun 10:22:15 PM 32.2870 -97.0590 181° South 404 465 11,500 1,116 Climbing FlightAware ADS-B
Sun 10:22:59 PM 32.2020 -97.0610 181° South 420 483 12,600 1,705 Climbing FlightAware ADS-B
Sun 10:23:43 PM 32.1143 -97.0645 182° South 428 493 14,000 1,786 Climbing FlightAware ADS-B
Sun 10:24:23 PM 32.0350 -97.0670 182° South 434 499 15,100 1,714 Climbing FlightAware ADS-B
Sun 10:25:07 PM 31.9450 -97.0700 182° South 437 503 16,400 1,789 Climbing FlightAware ADS-B
Sun 10:25:20 PM 31.9190 -97.0705 181° South 436 502 16,800 1,636 Climbing FlightAware ADS-B
Sun 10:26:13 PM 31.8104 -97.0739 182° South 437 503 18,200 1,500 Climbing FlightAware ADS-B
Sun 10:26:44 PM 31.7462 -97.0758 181° South 451 519 18,900 1,258 Climbing FlightAware ADS-B
Sun 10:27:15 PM 31.6821 -97.0777 181° South 458 527 19,500 968 Climbing FlightAware ADS-B
Sun 10:27:46 PM 31.6152 -97.0798 182° South 470 541 19,900 1,143 Climbing FlightAware ADS-B
Sun 10:28:18 PM 31.5437 -97.0826 182° South 476 548 20,700 1,976 Climbing FlightAware ADS-B
Sun 10:29:08 PM 31.4348 -97.0922 184° South 471 542 22,600 1,902 Climbing FlightAware ADS-B
Sun 10:29:40 PM 31.3682 -97.0992 185° South 462 532 23,300 1,406 Climbing FlightAware ADS-B
Sun 10:30:12 PM 31.3000 -97.1064 185° South 463 533 24,100 1,355 Climbing FlightAware ADS-B
Sun 10:30:42 PM 31.2355 -97.1130 185° South 466 536 24,700 1,200 Climbing FlightAware ADS-B
Sun 10:31:12 PM 31.1694 -97.1197 185° South 469 540 25,300 1,082 Climbing FlightAware ADS-B
Sun 10:31:43 PM 31.1029 -97.1266 185° South 474 545 25,800 787 Climbing FlightAware ADS-B
Sun 10:32:13 PM 31.0356 -97.1336 185° South 486 559 26,100 527 Climbing FlightAware ADS-B
Sun 10:33:14 PM 30.8955 -97.1479 185° South 505 581 26,600 587 Climbing FlightAware ADS-B
Sun 10:33:45 PM 30.8246 -97.1552 185° South 509 586 27,000 843 Climbing FlightAware ADS-B
Sun 10:35:15 PM 30.6096 -97.1771 185° South 518 596 28,300 934 Climbing FlightAware ADS-B
Sun 10:35:47 PM 30.5332 -97.1849 185° South 518 596 28,900 658 Climbing FlightAware ADS-B
Sun 10:37:50 PM 30.2387 -97.2147 185° South 522 601 30,000 373 Climbing FlightAware ADS-B
Sun 10:38:44 PM 30.1068 -97.2280 185° South 522 601 30,000  Level FlightAware ADS-B
Sun 10:38:50 PM 30.0935 -97.2293 185° South 522 601 30,000  Level FlightAware ADS-B
Sun 10:39:20 PM 30.0210 -97.2365 185° South 522 601 30,000  Level FlightAware ADS-B
Sun 10:39:50 PM 29.9481 -97.2439 185° South 523 602 30,000  Level FlightAware ADS-B
Sun 10:40:20 PM 29.8757 -97.2511 185° South 521 600 30,000  Level FlightAware ADS-B
Sun 10:40:21 PM 29.8735 -97.2514 187° South 522 601 30,000  Level FlightAware ADS-B
Sun 10:40:51 PM 29.8012 -97.2586 185° South 520 598 30,000  Level FlightAware ADS-B
Sun 10:41:22 PM 29.7284 -97.2659 185° South 518 596 30,000  Level FlightAware ADS-B
Sun 10:41:37 PM 29.6913 -97.2694 185° South 517 595 30,000  Level FlightAware ADS-B
Sun 10:42:07 PM 29.6189 -97.2721 182° South 518 596 30,000  Level FlightAware ADS-B
Sun 10:42:35 PM 29.5531 -97.2732 181° South 518 596 30,000  Level FlightAware ADS-B
Sun 10:43:05 PM 29.4806 -97.2775 183° South 519 597 30,000  Level FlightAware ADS-B
Sun 10:43:27 PM 29.4290 -97.2813 184° South 519 597 30,000  Level FlightAware ADS-B
Sun 10:43:41 PM 29.3935 -97.2815 180° South 518 596 30,000  Level FlightAware ADS-B
Sun 10:43:58 PM 29.3540 -97.2781 176° South 517 595 30,000  Level FlightAware ADS-B
Sun 10:44:17 PM 29.3097 -97.2694 170° South 515 593 30,000  Level FlightAware ADS-B
Sun 10:44:47 PM 29.2402 -97.2487 165° South 513 590 30,000  Level FlightAware ADS-B
Sun 10:45:17 PM 29.1708 -97.2268 165° South 512 589 30,000  Level FlightAware ADS-B
Sun 10:45:48 PM 29.1014 -97.2050 165° South 511 588 30,000  Level FlightAware ADS-B
Sun 10:46:18 PM 29.0308 -97.1833 165° South 511 588 30,000  Level FlightAware ADS-B
Sun 10:46:49 PM 28.9620 -97.1624 165° South 510 587 30,000  Level FlightAware ADS-B
Sun 10:47:19 PM 28.8927 -97.1415 165° South 511 588 30,000  Level FlightAware ADS-B
Sun 10:51:30 PM 28.3130 -96.9680 165° South 517 595 30,000  Level FlightAware ADS-B
Sun 10:52:07 PM 28.2390 -96.9450 165° South 517 595 30,000  Level FlightAware ADS-B
Sun 10:52:55 PM 28.1450 -96.9170 165° South 517 595 30,000  Level FlightAware ADS-B
Sun 10:53:31 PM 28.0750 -96.8950 165° South 517 595 30,000  Level FlightAware ADS-B
Sun 10:54:32 PM 27.9550 -96.8590 165° South 517 595 30,000  Level FlightAware ADS-B
Sun 10:55:08 PM 27.8840 -96.8380 165° South 517 595 30,000  Level FlightAware ADS-B
Sun 10:55:56 PM 27.7900 -96.8090 165° South 517 595 30,000  Level FlightAware ADS-B
Sun 10:56:32 PM 27.7190 -96.7880 165° South 517 595 30,000  Level FlightAware ADS-B
Sun 10:57:20 PM 27.6250 -96.7590 165° South 517 595 30,000  Level FlightAware ADS-B
Sun 10:57:56 PM 27.5540 -96.7380 165° South 517 595 30,000  Level FlightAware ADS-B
Sun 10:58:45 PM 27.4580 -96.7090 165° South 517 595 30,000  Level FlightAware ADS-B
Sun 10:59:21 PM 27.3870 -96.6870 165° South 517 595 30,000 822 Level FlightAware ADS-B
Sun 10:59:58 PM 27.1761 -96.6354 168° South 498 573 31,000 811 Climbing FlightAware ADS-B
Sun 11:00:35 PM 27.0914 -96.6109 166° South 498 573 31,000 -87 Level FlightAware ADS-B
Sun 11:01:07 PM 27.0286 -96.5917 166° South 497 572 30,900  Descending Houston Center
Sun 11:07:18 PM 26.2020 -96.3570 166° South 493 567 31,000 14 Climbing FlightAware ADS-B
Sun 11:08:04 PM 26.1140 -96.3310 165° South 493 567 31,000  Level FlightAware ADS-B
Sun 11:08:40 PM 26.0460 -96.3110 165° South 493 567 31,000  Level FlightAware ADS-B
Sun 11:09:24 PM 25.9230 -96.2780 166° South 491 565 31,000  Level FlightAware ADS-B
Sun 11:10:06 PM 25.8390 -96.2540 166° South 487 560 31,000  Level FlightAware ADS-B
Sun 11:11:01 PM 25.7220 -96.2210 166° South 486 559 31,000  Level FlightAware ADS-B
Sun 11:11:46 PM 25.6380 -96.1960 165° South 486 559 31,000  Level FlightAware ADS-B
Sun 11:12:23 PM 25.5700 -96.1760 165° South 486 559 31,000  Level FlightAware ADS-B
Sun 11:13:11 PM 25.4300 -96.1400 167° South 491 565 31,000  Level FlightAware ADS-B
Sun 11:14:08 PM 25.3160 -96.1070 165° South 490 564 31,000  Level FlightAware ADS-B
Sun 11:14:44 PM 25.2490 -96.0870 165° South 490 564 31,000  Level FlightAware ADS-B
Sun 11:15:33 PM 25.1580 -96.0600 165° South 490 564 31,000  Level FlightAware ADS-B
Sun 11:16:09 PM 25.0910 -96.0400 165° South 490 564 31,000  Level FlightAware ADS-B
Sun 11:16:46 PM 25.0220 -96.0200 165° South 490 564 31,000  Level FlightAware ADS-B
Sun 11:17:34 PM 24.9330 -95.9930 165° South 490 564 31,000  Level FlightAware ADS-B
Sun 11:18:10 PM 24.8660 -95.9740 166° South 490 564 31,000  Level FlightAware ADS-B
Sun 11:18:58 PM 24.7770 -95.9470 165° South 490 564 31,000  Level FlightAware ADS-B
Sun 11:19:35 PM 24.7080 -95.9270 165° South 490 564 31,000  Level FlightAware ADS-B
Sun 11:20:24 PM 24.6160 -95.9000 165° South 490 564 31,000  Level FlightAware ADS-B
Sun 11:21:01 PM 24.5480 -95.8800 165° South 490 564 31,000  Level FlightAware ADS-B
Sun 11:21:49 PM 24.4580 -95.8530 165° South 490 564 31,000  Level FlightAware ADS-B
Sun 11:22:23 PM 24.3950 -95.8350 165° South 490 564 31,000  Level FlightAware ADS-B
Sun 11:23:09 PM 24.3090 -95.8100 165° South 490 564 31,000  Level FlightAware ADS-B
Sun 11:25:00 PM 24.1469 -95.6070 131° Southeast  Level Estimated
Sun 11:26:00 PM 24.0592 -95.4974 131° Southeast  Level Estimated
Sun 11:27:00 PM 23.9713 -95.3881 131° Southeast  Level Estimated
Sun 11:28:00 PM 23.8834 -95.2788 131° Southeast  Level Estimated
Sun 11:29:00 PM 23.7955 -95.1697 131° Southeast  Level Estimated
Sun 11:30:00 PM 23.7074 -95.0608 131° Southeast  Level Estimated
Sun 11:31:00 PM 23.6193 -94.9520 131° Southeast  Level Estimated
Sun 11:32:00 PM 23.5311 -94.8434 132° Southeast  Level Estimated
Sun 11:33:00 PM 23.4428 -94.7348 132° Southeast  Level Estimated
Sun 11:34:00 PM 23.3547 -94.6267 132° Southeast  Level Estimated
Sun 11:35:00 PM 23.2664 -94.5187 132° Southeast  Level Estimated
Sun 11:36:00 PM 23.1780 -94.4108 132° Southeast  Level Estimated
Sun 11:37:00 PM 23.0896 -94.3030 132° Southeast  Level Estimated
Sun 11:38:00 PM 23.0011 -94.1954 132° Southeast  Level Estimated
Sun 11:39:00 PM 22.9126 -94.0880 132° Southeast  Level Estimated
Sun 11:40:00 PM 22.8239 -93.9807 132° Southeast  Level Estimated
Sun 11:41:00 PM 22.7352 -93.8735 132° Southeast  Level Estimated
Sun 11:42:00 PM 22.6465 -93.7664 132° Southeast  Level Estimated
Sun 11:43:00 PM 22.5576 -93.6595 132° Southeast  Level Estimated
Sun 11:44:00 PM 22.4687 -93.5528 132° Southeast  Level Estimated
Sun 11:45:00 PM 22.3797 -93.4462 132° Southeast  Level Estimated
Sun 11:46:00 PM 22.2906 -93.3397 132° Southeast  Level Estimated
Sun 11:46:00 PM 23.1770 -92.0240 132° Southeast 509 586 31,000  Level FlightAware ADS-B
Sun 11:46:41 PM 23.1410 -91.9350 114° Southeast 508 585 31,000  Level FlightAware ADS-B
Sun 11:47:24 PM 23.0940 -91.8150 113° Southeast 508 585 31,000  Level FlightAware ADS-B
Sun 11:48:08 PM 23.0630 -91.7370 113° Southeast 508 585 31,000  Level FlightAware ADS-B
Sun 11:48:46 PM 23.0220 -91.6350 114° Southeast 509 586 31,000  Level FlightAware ADS-B
Sun 11:49:34 PM 22.9790 -91.5260 113° Southeast 510 587 31,000  Level FlightAware ADS-B
Sun 11:50:09 PM 22.9510 -91.4550 113° Southeast 511 588 31,000  Level FlightAware ADS-B
Sun 11:51:07 PM 22.8920 -91.3070 113° Southeast 511 588 31,000  Level FlightAware ADS-B
Sun 11:51:51 PM 22.8510 -91.2060 114° Southeast 512 589 31,000  Level FlightAware ADS-B
Sun 11:52:31 PM 22.8130 -91.1100 113° Southeast 512 589 31,000  Level FlightAware ADS-B
Sun 11:53:48 PM 22.7410 -90.9320 114° Southeast 511 588 31,000  Level FlightAware ADS-B
Sun 11:54:25 PM 22.7060 -90.8450 114° Southeast 512 589 31,000  Level FlightAware ADS-B
Sun 11:55:05 PM 22.6680 -90.7520 114° Southeast 510 587 31,000  Level FlightAware ADS-B
Sun 11:56:05 PM 22.6070 -90.6010 114° Southeast 510 587 31,000  Level FlightAware ADS-B
Sun 11:56:45 PM 22.5670 -90.5040 114° Southeast 510 587 31,000  Level FlightAware ADS-B
Sun 11:57:25 PM 22.5320 -90.4170 114° Southeast 511 588 31,000  Level FlightAware ADS-B
Sun 11:58:11 PM 22.4930 -90.3210 114° Southeast 510 587 31,000  Level FlightAware ADS-B
Sun 11:58:51 PM 22.4440 -90.2030 114° Southeast 511 588 31,000  Level FlightAware ADS-B
Sun 11:59:29 PM 22.4110 -90.1220 114° Southeast 512 589 31,000  Level FlightAware ADS-B
Mon 12:00:12 AM 22.3700 -90.0210 114° Southeast 514 592 31,000  Level FlightAware ADS-B
Mon 12:01:01 AM 22.3300 -89.9250 114° Southeast 514 592 31,000  Level FlightAware ADS-B
Mon 12:01:40 AM 22.2810 -89.8080 114° Southeast 513 590 31,000  Level FlightAware ADS-B
Mon 12:02:20 AM 22.2470 -89.7250 114° Southeast 512 589 31,000  Level FlightAware ADS-B
Mon 12:03:04 AM 22.2060 -89.6250 114° Southeast 511 588 31,000  Level FlightAware ADS-B
Mon 12:03:48 AM 22.1650 -89.5280 115° Southeast 510 587 31,000  Level FlightAware ADS-B
Mon 12:04:23 AM 22.1290 -89.4400 114° Southeast 508 585 31,000  Level FlightAware ADS-B
Mon 12:05:06 AM 22.0830 -89.3320 115° Southeast 504 580 31,000  Level FlightAware ADS-B
Mon 12:05:46 AM 22.0400 -89.2280 114° Southeast 503 579 31,000  Level FlightAware ADS-B
Mon 12:06:34 AM 21.9950 -89.1200 114° Southeast 501 577 31,000  Level FlightAware ADS-B
Mon 12:07:32 AM 21.9430 -88.9970 114° Southeast 499 574 31,000  Level FlightAware ADS-B
Mon 12:08:13 AM 21.9030 -88.9010 114° Southeast 499 574 31,000  Level FlightAware ADS-B
Mon 12:08:52 AM 21.8680 -88.8180 114° Southeast 500 575 31,000  Level FlightAware ADS-B
Mon 12:09:37 AM 21.8260 -88.7190 115° Southeast 497 572 31,000  Level FlightAware ADS-B
Mon 12:10:16 AM 21.7900 -88.6330 114° Southeast 497 572 31,000  Level FlightAware ADS-B
Mon 12:10:59 AM 21.7420 -88.5200 115° Southeast 495 570 31,000  Level FlightAware ADS-B
Mon 12:11:39 AM 21.7030 -88.4280 115° Southeast 494 568 31,000  Level FlightAware ADS-B
Mon 12:12:22 AM 21.6650 -88.3400 115° Southeast 496 571 31,000  Level FlightAware ADS-B
Mon 12:13:00 AM 21.6300 -88.2570 114° Southeast 498 573 31,000  Level FlightAware ADS-B
Mon 12:13:49 AM 21.5820 -88.1450 115° Southeast 499 574 31,000  Level FlightAware ADS-B
Mon 12:14:26 AM 21.5440 -88.0560 115° Southeast 501 577 31,000  Level FlightAware ADS-B
Mon 12:15:13 AM 21.4960 -87.9440 115° Southeast 503 579 31,000  Level FlightAware ADS-B
Mon 12:16:02 AM 21.4660 -87.8710 114° Southeast 504 580 31,000  Level FlightAware ADS-B
Mon 12:16:46 AM 21.4100 -87.7430 115° Southeast 506 582 31,000  Level FlightAware ADS-B
Mon 12:17:28 AM 21.3690 -87.6490 115° Southeast 506 582 31,000  Level FlightAware ADS-B
Mon 12:18:14 AM 21.3240 -87.5440 115° Southeast 509 586 31,000  Level FlightAware ADS-B
Mon 12:19:12 AM 21.2710 -87.4230 115° Southeast 509 586 31,000  Level FlightAware ADS-B
Mon 12:19:47 AM 21.2320 -87.3320 115° Southeast 509 586 31,000  Level FlightAware ADS-B
Mon 12:20:33 AM 21.1830 -87.2190 115° Southeast 509 586 31,000  Level FlightAware ADS-B
Mon 12:21:11 AM 21.1470 -87.1370 115° Southeast 508 585 31,000  Level FlightAware ADS-B
Mon 12:22:01 AM 21.0980 -87.0260 115° Southeast 508 585 31,000  Level FlightAware ADS-B
Mon 12:22:40 AM 21.0550 -86.9270 115° Southeast 508 585 31,000  Level FlightAware ADS-B
Mon 12:23:20 AM 21.0090 -86.8480 122° Southeast 510 587 31,000  Level FlightAware ADS-B
Mon 12:24:03 AM 20.9530 -86.7820 132° Southeast 513 590 31,000  Level FlightAware ADS-B
Mon 12:24:59 AM 20.8460 -86.6820 139° Southeast 514 592 31,000  Level FlightAware ADS-B
Mon 12:26:00 AM 20.7550 -86.5920 137° Southeast 514 592 31,000  Level FlightAware ADS-B
Mon 12:26:36 AM 20.7020 -86.5390 137° Southeast 514 592 31,000  Level FlightAware ADS-B
Mon 12:27:25 AM 20.6300 -86.4670 137° Southeast 514 592 31,000  Level FlightAware ADS-B
Mon 12:28:02 AM 20.5750 -86.4120 137° Southeast 514 592 31,000  Level FlightAware ADS-B
Mon 12:28:38 AM 20.5220 -86.3590 137° Southeast 514 592 31,000  Level FlightAware ADS-B
Mon 12:29:26 AM 20.4510 -86.2890 137° Southeast 514 592 31,000  Level FlightAware ADS-B
Mon 12:30:03 AM 20.3960 -86.2340 137° Southeast 514 592 31,000  Level FlightAware ADS-B
Mon 12:30:52 AM 20.3240 -86.1620 137° Southeast 514 592 31,000  Level FlightAware ADS-B
Mon 12:31:38 AM 20.2560 -86.0940 137° Southeast 514 592 31,000  Level FlightAware ADS-B
Mon 12:32:14 AM 20.2020 -86.0420 138° Southeast 514 592 31,000  Level FlightAware ADS-B
Mon 12:33:02 AM 20.1310 -85.9710 137° Southeast 514 592 31,000  Level FlightAware ADS-B
Mon 12:33:38 AM 20.0780 -85.9180 137° Southeast 514 592 31,000  Level FlightAware ADS-B
Mon 12:34:24 AM 20.0100 -85.8510 137° Southeast 514 592 31,000 49 Level FlightAware ADS-B
Mon 12:37:00 AM 19.7579 -85.6002 137° Southeast  Level FlightAware Approximate
Mon 12:38:00 AM 19.6608 -85.5039 137° Southeast  Level FlightAware Approximate
Mon 12:39:00 AM 19.5637 -85.4078 137° Southeast  Level FlightAware Approximate
Mon 12:40:00 AM 19.4666 -85.3117 137° Southeast  Level FlightAware Approximate
Mon 12:41:00 AM 19.3693 -85.2158 137° Southeast  Level FlightAware Approximate
Mon 12:42:00 AM 19.2721 -85.1200 137° Southeast  Level FlightAware Approximate
Mon 12:43:00 AM 19.1748 -85.0243 137° Southeast  Level FlightAware Approximate
Mon 12:44:00 AM 19.0774 -84.9287 137° Southeast  Level FlightAware Approximate
Mon 12:45:00 AM 18.9800 -84.8333 137° Southeast  Level FlightAware Approximate
Mon 12:46:00 AM 18.8825 -84.7379 137° Southeast  Level FlightAware Approximate
Mon 12:47:00 AM 18.7850 -84.6427 137° Southeast  Level FlightAware Approximate
Mon 12:48:00 AM 18.6875 -84.5476 137° Southeast  Level FlightAware Approximate
Mon 12:49:00 AM 18.5899 -84.4526 137° Southeast  Level FlightAware Approximate
Mon 12:50:00 AM 18.4922 -84.3576 137° Southeast  Level FlightAware Approximate
Mon 12:51:00 AM 18.3946 -84.2628 137° Southeast  Level FlightAware Approximate
Mon 12:52:00 AM 18.2969 -84.1680 137° Southeast  Level FlightAware Approximate
Mon 12:53:00 AM 18.1992 -84.0733 137° Southeast  Level FlightAware Approximate
Mon 12:54:00 AM 18.1014 -83.9788 137° Southeast  Level FlightAware Approximate
Mon 12:55:00 AM 18.0036 -83.8843 137° Southeast  Level FlightAware Approximate
Mon 12:56:00 AM 17.9058 -83.7899 137° Southeast  Level FlightAware Approximate
Mon 12:57:00 AM 17.8078 -83.6957 137° Southeast  Level FlightAware Approximate
Mon 12:58:00 AM 17.7099 -83.6015 138° Southeast  Level FlightAware Approximate
Mon 12:59:00 AM 17.6119 -83.5074 138° Southeast  Level FlightAware Approximate
Mon 01:00:00 AM 17.5139 -83.4135 138° Southeast  Level FlightAware Approximate
Mon 01:01:00 AM 17.4158 -83.3196 138° Southeast  Level FlightAware Approximate
Mon 01:02:00 AM 17.3177 -83.2259 138° Southeast  Level FlightAware Approximate
Mon 01:03:00 AM 17.2195 -83.1322 138° Southeast  Level FlightAware Approximate
Mon 01:04:00 AM 17.1213 -83.0387 138° Southeast  Level FlightAware Approximate
Mon 01:05:00 AM 17.0231 -82.9453 138° Southeast  Level FlightAware Approximate
Mon 01:06:00 AM 16.9248 -82.8519 138° Southeast  Level FlightAware Approximate
Mon 01:07:00 AM 16.8265 -82.7586 138° Southeast  Level FlightAware Approximate
Mon 01:08:00 AM 16.7281 -82.6655 138° Southeast  Level FlightAware Approximate
Mon 01:09:00 AM 16.6297 -82.5724 138° Southeast  Level FlightAware Approximate
Mon 01:10:00 AM 16.5312 -82.4794 138° Southeast  Level FlightAware Approximate
Mon 01:11:00 AM 16.4327 -82.3866 138° Southeast  Level FlightAware Approximate
Mon 01:12:00 AM 16.3342 -82.2938 138° Southeast  Level FlightAware Approximate
Mon 01:13:00 AM 16.2356 -82.2011 138° Southeast  Level FlightAware Approximate
Mon 01:14:00 AM 16.1370 -82.1085 138° Southeast  Level FlightAware Approximate
Mon 01:15:00 AM 16.0383 -82.0160 138° Southeast  Level FlightAware Approximate
Mon 01:16:00 AM 15.9396 -81.9236 138° Southeast  Level FlightAware Approximate
Mon 01:17:00 AM 15.8409 -81.8313 138° Southeast  Level FlightAware Approximate
Mon 01:18:00 AM 15.7421 -81.7390 138° Southeast  Level FlightAware Approximate
Mon 01:19:00 AM 15.6433 -81.6469 138° Southeast  Level FlightAware Approximate
Mon 01:20:00 AM 15.5444 -81.5548 138° Southeast  Level FlightAware Approximate
Mon 01:21:00 AM 15.4455 -81.4629 138° Southeast  Level FlightAware Approximate
Mon 01:22:00 AM 15.3466 -81.3710 138° Southeast  Level FlightAware Approximate
Mon 01:23:00 AM 15.2477 -81.2792 138° Southeast  Level FlightAware Approximate
Mon 01:24:00 AM 15.1487 -81.1875 138° Southeast  Level FlightAware Approximate
Mon 01:25:00 AM 15.0496 -81.0958 138° Southeast  Level FlightAware Approximate
Mon 01:26:00 AM 14.9502 -81.0043 138° Southeast  Level FlightAware Approximate
Mon 01:27:00 AM 14.8507 -80.9130 138° Southeast  Level FlightAware Approximate
Mon 01:28:00 AM 14.7511 -80.8218 138° Southeast  Level FlightAware Approximate
Mon 01:29:00 AM 14.6515 -80.7306 138° Southeast  Level FlightAware Approximate
Mon 01:30:00 AM 14.5519 -80.6395 138° Southeast  Level FlightAware Approximate
Mon 01:31:00 AM 14.4522 -80.5486 139° Southeast  Level FlightAware Approximate
Mon 01:32:00 AM 14.3525 -80.4576 139° Southeast  Level FlightAware Approximate
Mon 01:33:00 AM 14.2528 -80.3668 139° Southeast  Level FlightAware Approximate
Mon 01:34:00 AM 14.1530 -80.2761 139° Southeast  Level FlightAware Approximate
Mon 01:35:00 AM 14.0532 -80.1854 139° Southeast  Level FlightAware Approximate
Mon 01:36:00 AM 13.9533 -80.0948 139° Southeast  Level FlightAware Approximate
Mon 01:37:00 AM 13.8534 -80.0043 139° Southeast  Level FlightAware Approximate
Mon 01:38:00 AM 13.7535 -79.9139 139° Southeast  Level FlightAware Approximate
Mon 01:39:00 AM 13.6538 -79.8237 139° Southeast  Level FlightAware Approximate
Mon 01:40:00 AM 13.5539 -79.7336 139° Southeast  Level FlightAware Approximate
Mon 01:41:00 AM 13.4541 -79.6436 139° Southeast  Level FlightAware Approximate
Mon 01:42:00 AM 13.3542 -79.5536 139° Southeast  Level FlightAware Approximate
Mon 01:43:00 AM 13.2543 -79.4637 139° Southeast  Level FlightAware Approximate
Mon 01:44:00 AM 13.1544 -79.3739 139° Southeast  Level FlightAware Approximate
Mon 01:45:00 AM 13.0544 -79.2841 139° Southeast  Level FlightAware Approximate
Mon 01:46:00 AM 12.9544 -79.1945 139° Southeast  Level FlightAware Approximate
Mon 01:47:00 AM 12.8544 -79.1049 139° Southeast  Level FlightAware Approximate
Mon 01:48:00 AM 12.7543 -79.0153 139° Southeast  Level FlightAware Approximate
Mon 01:49:00 AM 12.6543 -78.9259 139° Southeast  Level FlightAware Approximate
Mon 01:50:00 AM 12.5541 -78.8365 139° Southeast  Level FlightAware Approximate
Mon 01:51:00 AM 12.4540 -78.7472 139° Southeast  Level FlightAware Approximate
Mon 01:52:00 AM 12.3538 -78.6579 139° Southeast  Level FlightAware Approximate
Mon 01:53:00 AM 12.2536 -78.5687 139° Southeast  Level FlightAware Approximate
Mon 01:54:00 AM 12.1534 -78.4796 139° Southeast  Level FlightAware Approximate
Mon 01:54:30 AM 11.4080 -77.7640 139° Southeast 487 560 35,000  Level FlightAware ADS-B
Mon 01:55:00 AM 12.0531 -78.3906 139° Southeast  Level FlightAware Approximate
Mon 01:55:10 AM 11.3470 -77.7160 142° Southeast 487 560 35,000  Level FlightAware ADS-B
Mon 01:55:56 AM 11.2780 -77.6610 142° Southeast 487 560 35,000  Level FlightAware ADS-B
Mon 01:56:32 AM 11.2240 -77.6170 141° Southeast 487 560 35,000  Level FlightAware ADS-B
Mon 01:57:20 AM 11.1510 -77.5600 143° Southeast 487 560 35,000  Level FlightAware ADS-B
Mon 01:58:16 AM 11.0040 -77.4510 144° Southeast 496 571 35,000  Level FlightAware ADS-B
Mon 01:58:55 AM 10.9410 -77.3700 128° Southeast 505 581 35,000  Level FlightAware ADS-B
Mon 01:59:37 AM 10.8870 -77.2870 124° Southeast 507 583 35,000  Level FlightAware ADS-B
Mon 02:00:23 AM 10.8300 -77.1970 123° Southeast 508 585 35,000  Level FlightAware ADS-B
Mon 02:01:02 AM 10.7820 -77.1220 123° Southeast 506 582 35,000  Level FlightAware ADS-B
Mon 02:01:39 AM 10.7430 -77.0580 122° Southeast 506 582 35,000  Level FlightAware ADS-B
Mon 02:02:28 AM 10.6920 -76.9740 122° Southeast 506 582 35,000  Level FlightAware ADS-B
Mon 02:03:07 AM 10.6280 -76.8730 123° Southeast 500 575 35,000  Level FlightAware ADS-B
Mon 02:04:07 AM 10.5510 -76.7480 122° Southeast 498 573 35,000  Level FlightAware ADS-B
Mon 02:04:49 AM 10.4980 -76.6650 123° Southeast 490 564 35,000  Level FlightAware ADS-B
Mon 02:05:29 AM 10.4450 -76.5880 125° Southeast 489 563 35,000  Level FlightAware ADS-B
Mon 02:06:09 AM 10.3960 -76.5100 123° Southeast 495 570 35,000  Level FlightAware ADS-B
Mon 02:06:55 AM 10.3460 -76.4250 121° Southeast 494 568 35,000  Level FlightAware ADS-B
Mon 02:07:39 AM 10.2890 -76.3310 122° Southeast 493 567 35,000  Level FlightAware ADS-B
Mon 02:08:25 AM 10.2400 -76.2490 121° Southeast 494 568 35,000  Level FlightAware ADS-B
Mon 02:09:30 AM 10.1610 -76.1180 121° Southeast 497 572 35,000  Level FlightAware ADS-B
Mon 02:10:18 AM 10.1050 -76.0260 122° Southeast 496 571 35,000  Level FlightAware ADS-B
Mon 02:11:40 AM 10.0100 -75.8680 121° Southeast 497 572 35,000  Level FlightAware ADS-B
Mon 02:12:16 AM 9.9750 -75.8060 120° Southeast 497 572 35,000  Level FlightAware ADS-B
Mon 02:13:18 AM 9.8720 -75.6870 131° Southeast 501 577 35,000  Level FlightAware ADS-B
Mon 02:13:55 AM 9.8270 -75.6290 128° Southeast 501 577 35,000  Level FlightAware ADS-B
Mon 02:14:43 AM 9.7450 -75.5250 129° Southeast 492 566 35,000  Level FlightAware ADS-B
Mon 02:15:21 AM 9.7000 -75.4660 128° Southeast 492 566 35,000  Level FlightAware ADS-B
Mon 02:15:57 AM 9.6570 -75.4110 128° Southeast 492 566 35,000  Level FlightAware ADS-B
Mon 02:16:45 AM 9.6000 -75.3360 128° Southeast 492 566 35,000  Level FlightAware ADS-B
Mon 02:17:21 AM 9.5570 -75.2810 128° Southeast 492 566 35,000  Level FlightAware ADS-B
Mon 02:18:09 AM 9.5000 -75.2060 128° Southeast 492 566 35,000  Level FlightAware ADS-B
Mon 02:18:46 AM 9.4560 -75.1490 128° Southeast 492 566 35,000  Level FlightAware ADS-B
Mon 02:19:34 AM 9.3990 -75.0750 128° Southeast 492 566 35,000  Level FlightAware ADS-B
Mon 02:20:08 AM 9.3580 -75.0220 128° Southeast 492 566 35,000  Level FlightAware ADS-B
Mon 02:20:56 AM 9.3010 -74.9480 128° Southeast 492 566 35,000  Level FlightAware ADS-B
Mon 02:21:56 AM 9.2300 -74.8560 128° Southeast 492 566 35,000  Level FlightAware ADS-B
Mon 02:22:32 AM 9.1870 -74.8000 128° Southeast 492 566 35,000  Level FlightAware ADS-B
Mon 02:23:20 AM 9.1300 -74.7260 128° Southeast 492 566 35,000  Level FlightAware ADS-B
Mon 02:23:55 AM 9.0880 -74.6720 128° Southeast 492 566 35,000  Level FlightAware ADS-B
Mon 02:26:00 AM 8.8754 -74.4928 140° Southeast  Level Estimated
Mon 02:27:00 AM 8.7733 -74.4068 140° Southeast  Level Estimated
Mon 02:28:00 AM 8.6713 -74.3209 140° Southeast  Level Estimated
Mon 02:29:00 AM 8.5691 -74.2350 140° Southeast  Level Estimated
Mon 02:30:00 AM 8.4670 -74.1492 140° Southeast  Level Estimated
Mon 02:31:00 AM 8.3649 -74.0634 140° Southeast  Level Estimated
Mon 02:32:00 AM 8.2627 -73.9777 140° Southeast  Level Estimated
Mon 02:33:00 AM 8.1605 -73.8920 140° Southeast  Level Estimated
Mon 02:34:00 AM 8.0583 -73.8064 140° Southeast  Level Estimated
Mon 02:35:00 AM 7.9561 -73.7208 140° Southeast  Level Estimated
Mon 02:36:00 AM 7.8539 -73.6352 140° Southeast  Level Estimated
Mon 02:37:00 AM 7.7520 -73.5500 140° Southeast  Level Estimated
Mon 02:38:00 AM 7.6501 -73.4648 140° Southeast  Level Estimated
Mon 02:39:00 AM 7.5481 -73.3797 140° Southeast  Level Estimated
Mon 02:40:00 AM 7.4462 -73.2946 140° Southeast  Level Estimated
Mon 02:41:00 AM 7.3442 -73.2095 140° Southeast  Level Estimated
Mon 02:42:00 AM 7.2422 -73.1245 140° Southeast  Level Estimated
Mon 02:43:00 AM 7.1402 -73.0395 140° Southeast  Level Estimated
Mon 02:44:00 AM 7.0382 -72.9546 140° Southeast  Level Estimated
Mon 02:45:00 AM 6.9362 -72.8697 140° Southeast  Level Estimated
Mon 02:46:00 AM 6.8342 -72.7848 140° Southeast  Level Estimated
Mon 02:47:00 AM 6.7321 -72.7000 140° Southeast  Level Estimated
Mon 02:48:00 AM 6.6300 -72.6152 140° Southeast  Level Estimated
Mon 02:49:00 AM 6.5279 -72.5304 140° Southeast  Level Estimated
Mon 02:50:00 AM 6.4258 -72.4457 140° Southeast  Level Estimated
Mon 02:51:00 AM 6.3237 -72.3610 140° Southeast  Level Estimated
Mon 02:52:00 AM 6.2216 -72.2763 141° Southeast  Level Estimated
Mon 02:53:00 AM 6.1195 -72.1917 141° Southeast  Level Estimated
Mon 02:54:00 AM 6.0173 -72.1071 141° Southeast  Level Estimated
Mon 02:55:00 AM 5.9151 -72.0225 141° Southeast  Level Estimated
Mon 02:56:00 AM 5.8129 -71.9380 141° Southeast  Level Estimated
Mon 02:57:00 AM 5.7108 -71.8535 141° Southeast  Level Estimated
Mon 02:58:00 AM 5.6085 -71.7690 141° Southeast  Level Estimated
Mon 02:59:00 AM 5.5063 -71.6846 141° Southeast  Level Estimated
Mon 03:00:00 AM 5.4041 -71.6002 141° Southeast  Level Estimated
Mon 03:01:00 AM 5.3018 -71.5158 141° Southeast  Level Estimated
Mon 03:02:00 AM 5.1996 -71.4314 141° Southeast  Level Estimated
Mon 03:03:00 AM 5.0973 -71.3471 141° Southeast  Level Estimated
Mon 03:04:00 AM 4.9950 -71.2628 141° Southeast  Level Estimated
Mon 03:05:00 AM 4.8928 -71.1785 141° Southeast  Level Estimated
Mon 03:06:00 AM 4.7905 -71.0943 141° Southeast  Level Estimated
Mon 03:07:00 AM 4.6881 -71.0100 141° Southeast  Level Estimated
Mon 03:08:00 AM 4.5858 -70.9258 141° Southeast  Level Estimated
Mon 03:09:00 AM 4.4835 -70.8417 141° Southeast  Level Estimated
Mon 03:10:00 AM 4.3812 -70.7575 141° Southeast  Level Estimated
Mon 03:11:00 AM 4.2788 -70.6734 141° Southeast  Level Estimated
Mon 03:12:00 AM 4.1766 -70.5894 141° Southeast  Level Estimated
Mon 03:13:00 AM 4.0744 -70.5055 141° Southeast  Level Estimated
Mon 03:14:00 AM 3.9722 -70.4216 141° Southeast  Level Estimated
Mon 03:15:00 AM 3.8700 -70.3377 141° Southeast  Level Estimated
Mon 03:16:00 AM 3.7678 -70.2538 141° Southeast  Level Estimated
Mon 03:17:00 AM 3.6656 -70.1699 141° Southeast  Level Estimated
Mon 03:18:00 AM 3.5634 -70.0861 141° Southeast  Level Estimated
Mon 03:19:00 AM 3.4611 -70.0023 141° Southeast  Level Estimated
Mon 03:20:00 AM 3.3589 -69.9185 141° Southeast  Level Estimated
Mon 03:21:00 AM 3.2566 -69.8347 141° Southeast  Level Estimated
Mon 03:22:00 AM 3.1544 -69.7509 141° Southeast  Level Estimated
Mon 03:23:00 AM 3.0521 -69.6672 141° Southeast  Level Estimated
Mon 03:24:00 AM 2.9498 -69.5834 141° Southeast  Level Estimated
Mon 03:25:00 AM 2.8475 -69.4997 141° Southeast  Level Estimated
Mon 03:26:00 AM 2.7453 -69.4160 141° Southeast  Level Estimated
Mon 03:27:00 AM 2.6430 -69.3323 141° Southeast  Level Estimated
Mon 03:28:00 AM 2.5407 -69.2486 141° Southeast  Level Estimated
Mon 03:29:00 AM 2.4384 -69.1650 141° Southeast  Level Estimated
Mon 03:30:00 AM 2.3361 -69.0813 141° Southeast  Level Estimated
Mon 03:31:00 AM 2.2338 -68.9977 141° Southeast  Level Estimated
Mon 03:32:00 AM 2.1314 -68.9140 141° Southeast  Level Estimated
Mon 03:33:00 AM 2.0291 -68.8304 141° Southeast  Level Estimated
Mon 03:34:00 AM 1.9268 -68.7468 141° Southeast  Level Estimated
Mon 03:35:00 AM 1.8245 -68.6632 141° Southeast  Level Estimated
Mon 03:36:00 AM 1.7221 -68.5796 141° Southeast  Level Estimated
Mon 03:37:00 AM 1.6198 -68.4960 141° Southeast  Level Estimated
Mon 03:38:00 AM 1.5174 -68.4125 141° Southeast  Level Estimated
Mon 03:39:00 AM 1.4149 -68.3288 141° Southeast  Level Estimated
Mon 03:40:00 AM 1.3124 -68.2451 141° Southeast  Level Estimated
Mon 03:41:00 AM 1.2099 -68.1614 141° Southeast  Level Estimated
Mon 03:42:00 AM 1.1073 -68.0777 141° Southeast  Level Estimated
Mon 03:43:00 AM 1.0048 -67.9940 141° Southeast  Level Estimated
Mon 03:44:00 AM 0.9023 -67.9104 141° Southeast  Level Estimated
Mon 03:45:00 AM 0.7998 -67.8267 141° Southeast  Level Estimated
Mon 03:46:00 AM 0.6972 -67.7430 141° Southeast  Level Estimated
Mon 03:47:00 AM 0.5947 -67.6594 141° Southeast  Level Estimated
Mon 03:48:00 AM 0.4921 -67.5757 141° Southeast  Level Estimated
Mon 03:49:00 AM 0.3896 -67.4921 141° Southeast  Level Estimated
Mon 03:50:00 AM 0.2871 -67.4084 141° Southeast  Level Estimated
Mon 03:51:00 AM 0.1845 -67.3248 141° Southeast  Level Estimated
Mon 03:52:00 AM 0.0820 -67.2411 141° Southeast  Level Estimated
Mon 03:53:00 AM -0.0206 -67.1575 141° Southeast  Level Estimated
Mon 03:54:00 AM -0.1231 -67.0738 141° Southeast  Level Estimated
Mon 03:55:00 AM -0.2256 -66.9902 141° Southeast  Level Estimated
Mon 03:56:00 AM -0.3282 -66.9065 141° Southeast  Level Estimated
Mon 03:57:00 AM -0.4307 -66.8229 141° Southeast  Level Estimated
Mon 03:58:00 AM -0.5333 -66.7392 141° Southeast  Level Estimated
Mon 03:59:00 AM -0.6358 -66.6555 141° Southeast  Level Estimated
Mon 04:00:00 AM -0.7383 -66.5719 141° Southeast  Level Estimated
Mon 04:01:00 AM -0.8409 -66.4882 141° Southeast  Level Estimated
Mon 04:02:00 AM -0.9434 -66.4045 141° Southeast  Level Estimated
Mon 04:03:00 AM -1.0459 -66.3209 141° Southeast  Level Estimated
Mon 04:04:00 AM -1.1485 -66.2372 141° Southeast  Level Estimated
Mon 04:05:00 AM -1.2510 -66.1535 141° Southeast  Level Estimated
Mon 04:06:00 AM -1.3535 -66.0698 141° Southeast  Level Estimated
Mon 04:07:00 AM -1.4560 -65.9861 141° Southeast  Level Estimated
Mon 04:08:00 AM -1.5586 -65.9024 141° Southeast  Level Estimated
Mon 04:09:00 AM -1.6611 -65.8187 141° Southeast  Level Estimated
Mon 04:10:00 AM -1.7636 -65.7350 141° Southeast  Level Estimated
Mon 04:11:00 AM -1.8661 -65.6512 141° Southeast  Level Estimated
Mon 04:12:00 AM -1.9686 -65.5675 141° Southeast  Level Estimated
Mon 04:13:00 AM -2.0711 -65.4837 141° Southeast  Level Estimated
Mon 04:14:00 AM -2.1736 -65.4000 141° Southeast  Level Estimated
Mon 04:15:00 AM -2.2761 -65.3162 141° Southeast  Level Estimated
Mon 04:16:00 AM -2.3786 -65.2324 141° Southeast  Level Estimated
Mon 04:17:00 AM -2.4811 -65.1486 141° Southeast  Level Estimated
Mon 04:18:00 AM -2.5835 -65.0648 141° Southeast  Level Estimated
Mon 04:19:00 AM -2.6860 -64.9810 141° Southeast  Level Estimated
Mon 04:20:00 AM -2.7885 -64.8971 141° Southeast  Level Estimated
Mon 04:21:00 AM -2.8909 -64.8133 141° Southeast  Level Estimated
Mon 04:22:00 AM -2.9934 -64.7294 141° Southeast  Level Estimated
Mon 04:23:00 AM -3.0958 -64.6455 141° Southeast  Level Estimated
Mon 04:24:00 AM -3.1983 -64.5616 141° Southeast  Level Estimated
Mon 04:25:00 AM -3.3007 -64.4777 141° Southeast  Level Estimated
Mon 04:26:00 AM -3.4031 -64.3938 141° Southeast  Level Estimated
Mon 04:27:00 AM -3.5055 -64.3098 141° Southeast  Level Estimated
Mon 04:28:00 AM -3.6080 -64.2258 141° Southeast  Level Estimated
Mon 04:29:00 AM -3.7104 -64.1418 141° Southeast  Level Estimated
Mon 04:30:00 AM -3.8128 -64.0578 141° Southeast  Level Estimated
Mon 04:31:00 AM -3.9151 -63.9738 141° Southeast  Level Estimated
Mon 04:32:00 AM -4.0175 -63.8898 141° Southeast  Level Estimated
Mon 04:33:00 AM -4.1199 -63.8057 141° Southeast  Level Estimated
Mon 04:34:00 AM -4.2222 -63.7216 141° Southeast  Level Estimated
Mon 04:35:00 AM -4.3246 -63.6375 141° Southeast  Level Estimated
Mon 04:36:00 AM -4.4269 -63.5533 141° Southeast  Level Estimated
Mon 04:37:00 AM -4.5293 -63.4692 141° Southeast  Level Estimated
Mon 04:38:00 AM -4.6318 -63.3848 141° Southeast  Level Estimated
Mon 04:39:00 AM -4.7343 -63.3005 141° Southeast  Level Estimated
Mon 04:40:00 AM -4.8367 -63.2161 141° Southeast  Level Estimated
Mon 04:41:00 AM -4.9392 -63.1317 141° Southeast  Level Estimated
Mon 04:42:00 AM -5.0417 -63.0473 141° Southeast  Level Estimated
Mon 04:43:00 AM -5.1441 -62.9628 141° Southeast  Level Estimated
Mon 04:44:00 AM -5.2466 -62.8783 141° Southeast  Level Estimated
Mon 04:45:00 AM -5.3490 -62.7938 141° Southeast  Level Estimated
Mon 04:46:00 AM -5.4514 -62.7093 141° Southeast  Level Estimated
Mon 04:47:00 AM -5.5538 -62.6247 141° Southeast  Level Estimated
Mon 04:48:00 AM -5.6562 -62.5401 141° Southeast  Level Estimated
Mon 04:49:00 AM -5.7586 -62.4555 141° Southeast  Level Estimated
Mon 04:50:00 AM -5.8609 -62.3708 141° Southeast  Level Estimated
Mon 04:51:00 AM -5.9633 -62.2861 141° Southeast  Level Estimated
Mon 04:52:00 AM -6.0656 -62.2014 141° Southeast  Level Estimated
Mon 04:53:00 AM -6.1679 -62.1166 141° Southeast  Level Estimated
Mon 04:54:00 AM -6.2702 -62.0318 141° Southeast  Level Estimated
Mon 04:55:00 AM -6.3726 -61.9470 141° Southeast  Level Estimated
Mon 04:56:00 AM -6.4748 -61.8622 141° Southeast  Level Estimated
Mon 04:57:00 AM -6.5771 -61.7773 140° Southeast  Level Estimated
Mon 04:58:00 AM -6.6794 -61.6923 140° Southeast  Level Estimated
Mon 04:59:00 AM -6.7816 -61.6074 140° Southeast  Level Estimated
Mon 05:00:00 AM -6.8838 -61.5224 140° Southeast  Level Estimated
Mon 05:01:00 AM -6.9861 -61.4374 140° Southeast  Level Estimated
Mon 05:02:00 AM -7.0883 -61.3523 140° Southeast  Level Estimated
Mon 05:03:00 AM -7.1904 -61.2672 140° Southeast  Level Estimated
Mon 05:04:00 AM -7.2926 -61.1820 140° Southeast  Level Estimated
Mon 05:05:00 AM -7.3948 -61.0968 140° Southeast  Level Estimated
Mon 05:06:00 AM -7.4969 -61.0116 140° Southeast  Level Estimated
Mon 05:07:00 AM -7.5990 -60.9263 140° Southeast  Level Estimated
Mon 05:08:00 AM -7.7013 -60.8409 140° Southeast  Level Estimated
Mon 05:09:00 AM -7.8035 -60.7554 140° Southeast  Level Estimated
Mon 05:10:00 AM -7.9058 -60.6698 140° Southeast  Level Estimated
Mon 05:11:00 AM -8.0080 -60.5843 140° Southeast  Level Estimated
Mon 05:12:00 AM -8.1102 -60.4986 140° Southeast  Level Estimated
Mon 05:13:00 AM -8.2124 -60.4130 140° Southeast  Level Estimated
Mon 05:14:00 AM -8.3146 -60.3273 140° Southeast  Level Estimated
Mon 05:15:00 AM -8.4167 -60.2415 140° Southeast  Level Estimated
Mon 05:16:00 AM -8.5189 -60.1557 140° Southeast  Level Estimated
Mon 05:17:00 AM -8.6210 -60.0699 140° Southeast  Level Estimated
Mon 05:18:00 AM -8.7231 -59.9840 140° Southeast  Level Estimated
Mon 05:19:00 AM -8.8252 -59.8980 140° Southeast  Level Estimated
Mon 05:20:00 AM -8.9272 -59.8120 140° Southeast  Level Estimated
Mon 05:21:00 AM -9.0293 -59.7260 140° Southeast  Level Estimated
Mon 05:22:00 AM -9.1313 -59.6399 140° Southeast  Level Estimated
Mon 05:23:00 AM -9.2333 -59.5538 140° Southeast  Level Estimated
Mon 05:24:00 AM -9.3353 -59.4676 140° Southeast  Level Estimated
Mon 05:25:00 AM -9.4372 -59.3814 140° Southeast  Level Estimated
Mon 05:26:00 AM -9.5392 -59.2951 140° Southeast  Level Estimated
Mon 05:27:00 AM -9.6411 -59.2088 140° Southeast  Level Estimated
Mon 05:28:00 AM -9.7430 -59.1224 140° Southeast  Level Estimated
Mon 05:29:00 AM -9.8448 -59.0359 140° Southeast  Level Estimated
Mon 05:30:00 AM -9.9467 -58.9495 140° Southeast  Level Estimated
Mon 05:31:00 AM -10.0485 -58.8629 140° Southeast  Level Estimated
Mon 05:32:00 AM -10.1503 -58.7763 140° Southeast  Level Estimated
Mon 05:33:00 AM -10.2521 -58.6897 140° Southeast  Level Estimated
Mon 05:34:00 AM -10.3539 -58.6029 140° Southeast  Level Estimated
Mon 05:35:00 AM -10.4556 -58.5162 140° Southeast  Level Estimated
Mon 05:36:00 AM -10.5573 -58.4293 140° Southeast  Level Estimated
Mon 05:37:00 AM -10.6590 -58.3425 140° Southeast  Level Estimated
Mon 05:38:00 AM -10.7606 -58.2555 140° Southeast  Level Estimated
Mon 05:39:00 AM -10.8623 -58.1685 140° Southeast  Level Estimated
Mon 05:40:00 AM -10.9639 -58.0815 140° Southeast  Level Estimated
Mon 05:41:00 AM -11.0655 -57.9943 140° Southeast  Level Estimated
Mon 05:42:00 AM -11.1671 -57.9072 140° Southeast  Level Estimated
Mon 05:43:00 AM -11.2686 -57.8199 140° Southeast  Level Estimated
Mon 05:44:00 AM -11.3701 -57.7326 140° Southeast  Level Estimated
Mon 05:45:00 AM -11.4716 -57.6453 140° Southeast  Level Estimated
Mon 05:46:00 AM -11.5731 -57.5578 140° Southeast  Level Estimated
Mon 05:47:00 AM -11.6745 -57.4703 140° Southeast  Level Estimated
Mon 05:48:00 AM -11.7759 -57.3828 140° Southeast  Level Estimated
Mon 05:49:00 AM -11.8773 -57.2952 140° Southeast  Level Estimated
Mon 05:50:00 AM -11.9787 -57.2075 140° Southeast  Level Estimated
Mon 05:51:00 AM -12.0800 -57.1197 140° Southeast  Level Estimated
Mon 05:52:00 AM -12.1813 -57.0319 140° Southeast  Level Estimated
Mon 05:53:00 AM -12.2826 -56.9440 140° Southeast  Level Estimated
Mon 05:54:00 AM -12.3838 -56.8561 140° Southeast  Level Estimated
Mon 05:55:00 AM -12.4850 -56.7681 140° Southeast  Level Estimated
Mon 05:56:00 AM -12.5862 -56.6800 140° Southeast  Level Estimated
Mon 05:57:00 AM -12.6874 -56.5918 140° Southeast  Level Estimated
Mon 05:58:00 AM -12.7885 -56.5036 140° Southeast  Level Estimated
Mon 05:59:00 AM -12.8896 -56.4153 140° Southeast  Level Estimated
Mon 06:00:00 AM -12.9907 -56.3269 140° Southeast  Level Estimated
Mon 06:01:00 AM -13.0917 -56.2385 140° Southeast  Level Estimated
Mon 06:02:00 AM -13.1927 -56.1500 140° Southeast  Level Estimated
Mon 06:03:00 AM -13.2937 -56.0614 140° Southeast  Level Estimated
Mon 06:04:00 AM -13.3947 -55.9727 139° Southeast  Level Estimated
Mon 06:05:00 AM -13.4956 -55.8840 139° Southeast  Level Estimated
Mon 06:06:00 AM -13.5965 -55.7952 139° Southeast  Level Estimated
Mon 06:07:00 AM -13.6973 -55.7063 139° Southeast  Level Estimated
Mon 06:08:00 AM -13.7982 -55.6173 139° Southeast  Level Estimated
Mon 06:09:00 AM -13.8990 -55.5283 139° Southeast  Level Estimated
Mon 06:10:00 AM -13.9997 -55.4392 139° Southeast  Level Estimated
Mon 06:11:00 AM -14.1004 -55.3500 139° Southeast  Level Estimated
Mon 06:12:00 AM -14.2011 -55.2607 139° Southeast  Level Estimated
Mon 06:13:00 AM -14.3018 -55.1713 139° Southeast  Level Estimated
Mon 06:14:00 AM -14.4024 -55.0819 139° Southeast  Level Estimated
Mon 06:15:00 AM -14.5030 -54.9924 139° Southeast  Level Estimated
Mon 06:16:00 AM -14.6036 -54.9028 139° Southeast  Level Estimated
Mon 06:17:00 AM -14.7041 -54.8131 139° Southeast  Level Estimated
Mon 06:18:00 AM -14.8046 -54.7234 139° Southeast  Level Estimated
Mon 06:19:00 AM -14.9051 -54.6335 139° Southeast  Level Estimated
Mon 06:20:00 AM -15.0055 -54.5436 139° Southeast  Level Estimated
Mon 06:21:00 AM -15.1059 -54.4536 139° Southeast  Level Estimated
Mon 06:22:00 AM -15.2062 -54.3635 139° Southeast  Level Estimated
Mon 06:23:00 AM -15.3066 -54.2733 139° Southeast  Level Estimated
Mon 06:24:00 AM -15.4068 -54.1830 139° Southeast  Level Estimated
Mon 06:25:00 AM -15.5071 -54.0927 139° Southeast  Level Estimated
Mon 06:26:00 AM -15.6073 -54.0022 139° Southeast  Level Estimated
Mon 06:27:00 AM -15.7075 -53.9117 139° Southeast  Level Estimated
Mon 06:28:00 AM -15.8076 -53.8211 139° Southeast  Level Estimated
Mon 06:29:00 AM -15.9077 -53.7304 139° Southeast  Level Estimated
Mon 06:30:00 AM -16.0077 -53.6396 139° Southeast  Level Estimated
Mon 06:31:00 AM -16.1078 -53.5487 139° Southeast  Level Estimated
Mon 06:32:00 AM -16.2078 -53.4577 139° Southeast  Level Estimated
Mon 06:33:00 AM -16.3077 -53.3666 139° Southeast  Level Estimated
Mon 06:34:00 AM -16.4076 -53.2755 139° Southeast  Level Estimated
Mon 06:35:00 AM -16.5075 -53.1842 139° Southeast  Level Estimated
Mon 06:36:00 AM -16.6073 -53.0928 139° Southeast  Level Estimated
Mon 06:37:00 AM -16.7071 -53.0014 139° Southeast  Level Estimated
Mon 06:38:00 AM -16.8068 -52.9098 139° Southeast  Level Estimated
Mon 06:39:00 AM -16.9065 -52.8182 139° Southeast  Level Estimated
Mon 06:40:00 AM -17.0061 -52.7265 139° Southeast  Level Estimated
Mon 06:41:00 AM -17.1058 -52.6346 139° Southeast  Level Estimated
Mon 06:42:00 AM -17.2054 -52.5427 139° Southeast  Level Estimated
Mon 06:43:00 AM -17.3049 -52.4506 139° Southeast  Level Estimated
Mon 06:44:00 AM -17.4044 -52.3585 139° Southeast  Level Estimated
Mon 06:45:00 AM -17.5038 -52.2663 139° Southeast  Level Estimated
Mon 06:46:00 AM -17.6033 -52.1739 138° Southeast  Level Estimated
Mon 06:47:00 AM -17.7026 -52.0815 138° Southeast  Level Estimated
Mon 06:48:00 AM -17.8020 -51.9889 138° Southeast  Level Estimated
Mon 06:49:00 AM -17.9012 -51.8963 138° Southeast  Level Estimated
Mon 06:50:00 AM -18.0005 -51.8035 138° Southeast  Level Estimated
Mon 06:51:00 AM -18.0997 -51.7107 138° Southeast  Level Estimated
Mon 06:52:00 AM -18.1988 -51.6177 138° Southeast  Level Estimated
Mon 06:52:31 AM -19.1420 -50.5160 138° Southeast 524 603 35,000  Level FlightAware ADS-B
Mon 06:53:00 AM -18.2979 -51.5247 138° Southeast  Level Estimated
Mon 06:53:08 AM -19.2050 -50.4470 134° Southeast 522 601 35,000  Level FlightAware ADS-B
Mon 06:53:51 AM -19.2780 -50.3670 134° Southeast 522 601 35,000  Level FlightAware ADS-B
Mon 06:54:33 AM -19.3480 -50.2900 134° Southeast 522 601 35,000  Level FlightAware ADS-B
Mon 06:55:14 AM -19.4160 -50.2160 134° Southeast 523 602 35,000  Level FlightAware ADS-B
Mon 06:55:57 AM -19.4880 -50.1360 134° Southeast 523 602 35,000  Level FlightAware ADS-B
Mon 06:56:41 AM -19.5650 -50.0520 134° Southeast 521 600 35,000  Level FlightAware ADS-B
Mon 06:57:21 AM -19.6310 -49.9780 133° Southeast 521 600 35,000  Level FlightAware ADS-B
Mon 06:57:59 AM -19.6890 -49.9150 134° Southeast 521 600 35,000  Level FlightAware ADS-B
Mon 06:58:45 AM -19.7680 -49.8290 134° Southeast 519 597 35,000  Level FlightAware ADS-B
Mon 06:59:29 AM -19.8440 -49.7460 134° Southeast 519 597 35,000  Level FlightAware ADS-B
Mon 07:00:08 AM -19.9060 -49.6780 134° Southeast 519 597 35,000  Level FlightAware ADS-B
Mon 07:00:52 AM -19.9840 -49.5920 134° Southeast 520 598 35,000  Level FlightAware ADS-B
Mon 07:01:36 AM -20.0590 -49.5110 135° Southeast 519 597 35,000  Level FlightAware ADS-B
Mon 07:02:16 AM -20.1260 -49.4370 134° Southeast 520 598 35,000  Level FlightAware ADS-B
Mon 07:02:56 AM -20.1920 -49.3630 134° Southeast 521 600 35,000  Level FlightAware ADS-B
Mon 07:03:42 AM -20.2670 -49.2810 134° Southeast 521 600 35,000  Level FlightAware ADS-B
Mon 07:04:24 AM -20.3390 -49.2020 134° Southeast 521 600 35,000  Level FlightAware ADS-B
Mon 07:05:01 AM -20.4010 -49.1320 133° Southeast 522 601 35,000  Level FlightAware ADS-B
Mon 07:05:48 AM -20.4790 -49.0470 134° Southeast 522 601 35,000  Level FlightAware ADS-B
Mon 07:06:29 AM -20.5490 -48.9690 134° Southeast 521 600 35,000  Level FlightAware ADS-B
Mon 07:07:09 AM -20.6160 -48.8950 134° Southeast 520 598 35,000  Level FlightAware ADS-B
Mon 07:07:51 AM -20.6870 -48.8150 133° Southeast 521 600 35,000  Level FlightAware ADS-B
Mon 07:08:33 AM -20.7570 -48.7370 134° Southeast 520 598 35,000  Level FlightAware ADS-B
Mon 07:09:29 AM -20.8500 -48.6330 134° Southeast 519 597 35,000  Level FlightAware ADS-B
Mon 07:10:13 AM -20.9210 -48.5530 134° Southeast 517 595 35,000  Level FlightAware ADS-B
Mon 07:10:55 AM -20.9910 -48.4740 134° Southeast 517 595 35,000  Level FlightAware ADS-B
Mon 07:11:39 AM -21.0640 -48.3930 134° Southeast 516 594 35,000  Level FlightAware ADS-B
Mon 07:12:19 AM -21.1300 -48.3180 133° Southeast 516 594 35,000  Level FlightAware ADS-B
Mon 07:12:59 AM -21.1960 -48.2440 134° Southeast 515 593 35,000  Level FlightAware ADS-B
Mon 07:13:43 AM -21.2670 -48.1620 133° Southeast 515 593 35,000  Level FlightAware ADS-B
Mon 07:14:23 AM -21.3330 -48.0870 133° Southeast 515 593 35,000  Level FlightAware ADS-B
Mon 07:15:09 AM -21.4070 -48.0030 133° Southeast 514 592 35,000  Level FlightAware ADS-B
Mon 07:15:49 AM -21.4730 -47.9300 134° Southeast 513 590 35,000  Level FlightAware ADS-B
Mon 07:16:27 AM -21.5350 -47.8590 133° Southeast 513 590 35,000  Level FlightAware ADS-B
Mon 07:17:15 AM -21.6140 -47.7690 133° Southeast 512 589 35,000  Level FlightAware ADS-B
Mon 07:17:54 AM -21.6820 -47.7080 140° Southeast 501 577 35,000  Level FlightAware ADS-B
Mon 07:18:36 AM -21.7650 -47.6530 148° Southeast 501 577 35,000  Level FlightAware ADS-B
Mon 07:19:19 AM -21.8510 -47.5940 148° Southeast 502 578 35,000 -900 Level FlightAware ADS-B
Mon 07:19:56 AM -21.9210 -47.5450 147° Southeast 498 573 33,800 -2,791 Descending FlightAware ADS-B
Mon 07:20:45 AM -22.0190 -47.4760 147° Southeast 508 585 31,000 -2,835 Descending FlightAware ADS-B
Mon 07:21:27 AM -22.1010 -47.4180 147° Southeast 496 571 29,500 -2,096 Descending FlightAware ADS-B
Mon 07:22:08 AM -22.1740 -47.3690 148° Southeast 485 558 28,100 -2,175 Descending FlightAware ADS-B
Mon 07:22:47 AM -22.2530 -47.3170 149° Southeast 476 548 26,600 -2,214 Descending FlightAware ADS-B
Mon 07:23:32 AM -22.3360 -47.2610 148° Southeast 467 537 25,000 -2,143 Descending FlightAware ADS-B
Mon 07:24:11 AM -22.4080 -47.2120 148° Southeast 460 529 23,600 -2,096 Descending FlightAware ADS-B
Mon 07:24:55 AM -22.4860 -47.1590 148° Southeast 451 519 22,100 -2,071 Descending FlightAware ADS-B
Mon 07:25:35 AM -22.5570 -47.1120 149° Southeast 425 489 20,700 -2,182 Descending FlightAware ADS-B
Mon 07:26:12 AM -22.6150 -47.0820 154° Southeast 381 438 19,300 -2,329 Descending FlightAware ADS-B
Mon 07:27:00 AM -22.6910 -47.0490 158° South 340 391 17,400 -1,800 Descending FlightAware ADS-B
Mon 07:27:42 AM -22.7530 -47.0240 160° South 324 373 16,600 -1,116 Descending FlightAware ADS-B
Mon 07:28:26 AM -22.8130 -46.9990 159° South 313 360 15,800 -1,071 Descending FlightAware ADS-B
Mon 07:29:06 AM -22.8680 -46.9760 159° South 316 364 15,100 -1,357 Descending FlightAware ADS-B
Mon 07:29:50 AM -22.9290 -46.9500 159° South 323 372 13,900 -1,674 Descending FlightAware ADS-B
Mon 07:30:32 AM -22.9870 -46.9250 158° South 309 356 12,700 -1,725 Descending FlightAware ADS-B
Mon 07:31:10 AM -23.0360 -46.9050 159° South 294 338 11,600 -1,643 Descending FlightAware ADS-B
Mon 07:31:56 AM -23.0940 -46.8800 158° South 291 335 10,400 -1,500 Descending FlightAware ADS-B
Mon 07:32:18 AM -23.1220 -46.8690 160° South 288 331 9,900 -1,143 Descending FlightAware ADS-B
Mon 07:32:38 AM -23.1470 -46.8580 158° South 278 320 9,600 -1,125 Descending FlightAware ADS-B
Mon 07:33:06 AM -23.1800 -46.8440 159° South 274 315 9,000 -1,286 Descending FlightAware ADS-B
Mon 07:33:34 AM -23.2130 -46.8310 160° South 259 298 8,400 -1,154 Descending FlightAware ADS-B
Mon 07:33:58 AM -23.2380 -46.8200 158° South 250 288 8,000 -1,071 Descending FlightAware ADS-B
Mon 07:34:30 AM -23.2700 -46.8000 150° Southeast 247 284 7,400 -1,138 Descending FlightAware ADS-B
Mon 07:34:56 AM -23.2960 -46.7830 149° Southeast 241 277 6,900 -964 Descending FlightAware ADS-B
Mon 07:35:26 AM -23.3240 -46.7660 151° Southeast 226 260 6,500 -724 Descending FlightAware ADS-B
Mon 07:35:54 AM -23.3500 -46.7510 152° Southeast 219 252 6,200 -643 Descending FlightAware ADS-B
Mon 07:36:22 AM -23.3750 -46.7360 151° Southeast 218 251 5,900 -750 Descending FlightAware ADS-B
Mon 07:36:50 AM -23.3990 -46.7210 150° Southeast 214 246 5,500 -737 Descending FlightAware ADS-B
Mon 07:37:19 AM -23.4200 -46.7030 142° Southeast 202 232 5,200 -632 Descending FlightAware ADS-B
Mon 07:37:47 AM -23.4380 -46.6820 133° Southeast 200 230 4,900 -692 Descending FlightAware ADS-B
Mon 07:38:11 AM -23.4520 -46.6630 129° Southeast 191 220 4,600 -566 Descending FlightAware ADS-B
Mon 07:38:40 AM -23.4670 -46.6420 128° Southeast 191 220 4,400 -235 Descending FlightAware ADS-B
Mon 07:39:02 AM -23.4740 -46.6220 111° Southeast 188 216 4,400 -327 Level FlightAware ADS-B
Mon 07:39:35 AM -23.4670 -46.5910 76° East 186 214 4,100 -638 Descending FlightAware ADS-B
Mon 07:39:49 AM -23.4640 -46.5800 73° East 180 207 3,900 -1,000 Descending FlightAware ADS-B
Mon 07:40:17 AM -23.4570 -46.5550 73° East 161 185 3,400 -828 Descending FlightAware ADS-B
Mon 07:40:47 AM -23.4520 -46.5340 75° East 146 168 3,100 -750 Descending FlightAware ADS-B
Mon 07:41:29 AM -23.4440 -46.5050 73° East 144 166 2,500 -794 Descending FlightAware ADS-B
Mon 07:41:55 AM -23.4390 -46.4880 72° East 142 163 2,200 -692 Descending FlightAware ADS-B
Mon 07:42:10 AM -23.4360 -46.4770 73° East 115 132 -8,800 Descending FlightAware ADS-B
Mon 07:42:39 AM -23.4340 -46.4700 73° East 21 24  Level FlightAware ADS-B

Login

Don't have an account? Register now (free) for customized features, flight alerts, and more!